Time;durP1;ratioP1;P1;durP2;ratioP2;P2;SDS_P1;SDS_P2;PMS_P1;PMS_P2;Temp;Humidity;BMP_temperature;BMP_pressure;BME280_temperature;BME280_humidity;BME280_pressure;Samples;Min_cycle;Max_cycle;Signal;HPM_P1;HPM_P2
2021/03/31 00:01:34;;;;;;;30.27;10.65;;;6.60;99.90;;;;;;4883721;28;20083;-81
2021/03/31 00:03:57;;;;;;;27.08;10.07;;;6.50;99.90;;;;;;4884978;28;20100;-81
2021/03/31 00:06:21;;;;;;;25.15;10.30;;;6.50;99.90;;;;;;4888456;28;20355;-82
2021/03/31 00:08:44;;;;;;;25.27;9.82;;;6.50;99.90;;;;;;4885552;28;20442;-80
2021/03/31 00:11:06;;;;;;;22.90;10.00;;;6.50;99.90;;;;;;4878017;28;20201;-83
2021/03/31 00:13:29;;;;;;;24.45;10.82;;;6.50;99.90;;;;;;4878172;28;20100;-83
2021/03/31 00:15:53;;;;;;;21.05;9.73;;;6.40;99.90;;;;;;4886633;28;20530;-82
2021/03/31 00:18:18;;;;;;;20.40;9.48;;;6.30;99.90;;;;;;4883716;28;20077;-80
2021/03/31 00:20:41;;;;;;;15.50;7.75;;;6.10;99.90;;;;;;4886847;28;20094;-81
2021/03/31 00:23:05;;;;;;;16.60;7.95;;;5.90;99.90;;;;;;4869033;28;20088;-80
2021/03/31 00:25:28;;;;;;;21.83;8.20;;;5.80;99.90;;;;;;4885738;28;20081;-83
2021/03/31 00:27:50;;;;;;;16.80;7.95;;;5.70;99.90;;;;;;4874546;28;20096;-84
2021/03/31 00:30:15;;;;;;;21.38;8.35;;;5.70;99.90;;;;;;4879424;28;20514;-80
2021/03/31 00:32:38;;;;;;;18.50;7.80;;;5.60;99.90;;;;;;4877837;28;20098;-81
2021/03/31 00:35:02;;;;;;;17.73;8.63;;;5.60;99.90;;;;;;4871447;28;20146;-82
2021/03/31 00:37:24;;;;;;;15.98;8.48;;;5.70;99.90;;;;;;4887569;28;20640;-82
2021/03/31 00:39:46;;;;;;;23.00;9.25;;;5.60;99.90;;;;;;4876062;28;20125;-82
2021/03/31 00:42:09;;;;;;;19.38;8.63;;;5.60;99.90;;;;;;4885267;28;20096;-83
2021/03/31 00:44:33;;;;;;;19.15;7.38;;;5.40;99.90;;;;;;4876035;28;20583;-81
2021/03/31 00:46:55;;;;;;;20.83;8.45;;;5.30;99.90;;;;;;4886523;28;20107;-80
2021/03/31 00:49:18;;;;;;;16.67;7.40;;;5.30;99.90;;;;;;4879791;28;20553;-83
2021/03/31 00:51:47;;;;;;;16.55;7.60;;;5.20;99.90;;;;;;4872956;28;20139;-80
2021/03/31 00:54:10;;;;;;;17.70;6.65;;;5.10;99.90;;;;;;4873917;28;20134;-82
2021/03/31 00:56:32;;;;;;;8.38;3.90;;;4.80;99.90;;;;;;4876959;28;20374;-80
2021/03/31 00:58:55;;;;;;;11.90;1.30;;;4.50;99.90;;;;;;4884949;28;20091;-82
2021/03/31 01:01:17;;;;;;;9.38;4.72;;;4.30;99.90;;;;;;4879977;28;20103;-82
2021/03/31 01:03:40;;;;;;;12.13;4.30;;;4.20;99.90;;;;;;4872071;28;20566;-82
2021/03/31 01:06:03;;;;;;;11.25;5.40;;;4.20;99.90;;;;;;4886091;28;20083;-82
2021/03/31 01:08:26;;;;;;;15.18;6.68;;;3.50;99.90;;;;;;4870068;28;20427;-82
2021/03/31 01:10:53;;;;;;;16.85;7.18;;;4.20;99.90;;;;;;4884301;28;20087;-80
2021/03/31 01:13:42;;;;;;;12.40;5.18;;;4.30;99.90;;;;;;4878415;28;20083;-78
2021/03/31 01:16:24;;;;;;;20.20;7.60;;;4.50;99.90;;;;;;4886503;28;20176;-80
2021/03/31 01:18:50;;;;;;;21.67;7.28;;;4.60;99.90;;;;;;4885947;28;20087;-83
2021/03/31 01:21:52;;;;;;;14.82;7.40;;;4.60;99.90;;;;;;4891430;28;20177;-81
2021/03/31 01:24:51;;;;;;;97.80;9.82;;;4.70;99.90;;;;;;4888828;28;20527;-81
2021/03/31 01:27:19;;;;;;;21.05;8.20;;;4.90;99.90;;;;;;4850829;28;20833;-83
2021/03/31 01:30:03;;;;;;;24.38;10.57;;;4.90;99.90;;;;;;4878056;28;20099;-82
2021/03/31 01:32:47;;;;;;;20.58;9.35;;;4.90;99.90;;;;;;4872625;28;20144;-84
2021/03/31 01:35:12;;;;;;;21.75;9.60;;;4.90;99.90;;;;;;4871363;28;20099;-82
2021/03/31 01:37:37;;;;;;;;;;;4.90;99.90;;;;;;4890547;28;20098;-81
2021/03/31 01:40:04;;;;;;;18.15;7.95;;;4.80;99.90;;;;;;4889980;28;20449;-82
2021/03/31 01:42:31;;;;;;;27.80;9.52;;;4.80;99.90;;;;;;4873313;28;20424;-84
2021/03/31 01:44:58;;;;;;;23.95;11.32;;;4.80;99.90;;;;;;4873660;28;20102;-82
2021/03/31 01:47:21;;;;;;;27.77;10.00;;;5.00;99.90;;;;;;4889578;28;20080;-82
2021/03/31 01:49:44;;;;;;;21.88;9.73;;;;;;;;;;4882815;28;20114;-81
2021/03/31 01:52:10;;;;;;;26.08;9.88;;;4.90;99.90;;;;;;4870274;28;20092;-82
2021/03/31 01:54:34;;;;;;;24.55;9.30;;;4.70;99.90;;;;;;4881338;28;20162;-81
2021/03/31 01:56:58;;;;;;;18.58;7.75;;;4.70;99.90;;;;;;4888584;28;20091;-83
2021/03/31 01:59:23;;;;;;;20.83;7.85;;;4.60;99.90;;;;;;4881331;28;20098;-84
2021/03/31 02:01:47;;;;;;;31.42;8.88;;;4.60;99.90;;;;;;4890035;28;20103;-81
2021/03/31 02:04:10;;;;;;;25.33;8.90;;;4.80;99.90;;;;;;4889253;28;20450;-81
2021/03/31 02:06:34;;;;;;;16.67;7.97;;;4.90;99.90;;;;;;4890520;28;20493;-82
2021/03/31 02:08:59;;;;;;;15.75;7.32;;;4.90;99.90;;;;;;4888311;28;20422;-82
2021/03/31 02:11:25;;;;;;;12.27;7.32;;;4.90;99.90;;;;;;4877166;28;20102;-83
2021/03/31 02:13:49;;;;;;;14.60;6.93;;;4.90;99.90;;;;;;4889005;28;20387;-82
2021/03/31 02:16:12;;;;;;;17.70;8.23;;;4.90;99.90;;;;;;4890210;28;20404;-84
2021/03/31 02:18:37;;;;;;;13.25;7.03;;;4.80;99.90;;;;;;4880079;28;20553;-83
2021/03/31 02:21:00;;;;;;;100.28;7.32;;;4.80;99.90;;;;;;4874552;28;20594;-82
2021/03/31 02:23:23;;;;;;;58.78;9.13;;;5.10;99.90;;;;;;4882738;28;20553;-80
2021/03/31 02:25:48;;;;;;;31.90;9.00;;;5.40;99.90;;;;;;4874018;28;20099;-81
2021/03/31 02:28:11;;;;;;;49.67;7.60;;;5.50;99.90;;;;;;4864064;28;20084;-83
2021/03/31 02:30:33;;;;;;;42.72;12.68;;;5.50;99.90;;;;;;4886716;28;20125;-82
2021/03/31 02:33:00;;;;;;;70.80;15.00;;;5.50;99.90;;;;;;4890049;28;20094;-81
2021/03/31 02:35:24;;;;;;;20.48;9.50;;;5.30;99.90;;;;;;4887802;28;20095;-81
2021/03/31 02:37:51;;;;;;;61.47;12.65;;;5.20;99.90;;;;;;4882165;28;20087;-80
2021/03/31 02:40:15;;;;;;;53.13;11.38;;;5.10;99.90;;;;;;4883808;28;20080;-80
2021/03/31 02:42:40;;;;;;;61.97;15.00;;;5.10;99.90;;;;;;4880934;28;20129;-82
2021/03/31 02:45:06;;;;;;;154.88;19.90;;;5.00;99.90;;;;;;4878512;28;20091;-82
2021/03/31 02:47:30;;;;;;;35.15;8.55;;;4.60;99.90;;;;;;4887395;28;20083;-82
2021/03/31 02:49:57;;;;;;;58.05;6.93;;;4.10;99.90;;;;;;4877637;28;20091;-81
2021/03/31 02:52:23;;;;;;;38.47;5.68;;;3.60;99.90;;;;;;4887658;28;20498;-82
2021/03/31 02:54:48;;;;;;;16.10;4.72;;;3.40;99.90;;;;;;4888054;28;20083;-83
2021/03/31 02:57:11;;;;;;;19.88;4.05;;;3.10;99.90;;;;;;4871788;28;20521;-83
2021/03/31 02:59:34;;;;;;;24.73;4.57;;;2.80;99.90;;;;;;4884992;28;20091;-81
2021/03/31 03:01:58;;;;;;;17.92;3.92;;;2.60;99.90;;;;;;4875464;28;20087;-80
2021/03/31 03:04:21;;;;;;;27.85;5.10;;;2.50;99.90;;;;;;4885221;28;20476;-80
2021/03/31 03:06:46;;;;;;;26.33;8.20;;;2.50;99.90;;;;;;4879369;28;20091;-79
2021/03/31 03:09:09;;;;;;;38.88;9.02;;;2.40;99.90;;;;;;4887411;28;20083;-79
2021/03/31 03:11:33;;;;;;;32.70;12.40;;;2.40;99.90;;;;;;4888697;28;20087;-80
2021/03/31 03:13:56;;;;;;;40.35;18.08;;;2.60;99.90;;;;;;4883987;28;20541;-80
2021/03/31 03:16:21;;;;;;;43.13;20.65;;;2.60;99.90;;;;;;4868750;28;20558;-81
2021/03/31 03:18:44;;;;;;;99.18;31.77;;;2.70;99.90;;;;;;4876966;28;20087;-82
2021/03/31 03:21:09;;;;;;;87.40;32.63;;;2.70;99.90;;;;;;4883176;28;20100;-80
2021/03/31 03:23:32;;;;;;;134.07;39.47;;;2.60;99.90;;;;;;4870877;28;20523;-82
2021/03/31 03:25:56;;;;;;;89.80;39.10;;;2.60;99.90;;;;;;4877491;28;20139;-80
2021/03/31 03:28:21;;;;;;;70.90;32.42;;;2.60;99.90;;;;;;4875435;28;20095;-79
2021/03/31 03:30:43;;;;;;;48.40;19.75;;;2.50;99.90;;;;;;4863578;28;20084;-86
2021/03/31 03:33:07;;;;;;;27.02;12.93;;;2.40;99.90;;;;;;4870083;28;20092;-82
2021/03/31 03:35:30;;;;;;;29.30;12.35;;;2.10;99.90;;;;;;4874550;28;20101;-82
2021/03/31 03:37:54;;;;;;;28.08;11.20;;;2.00;99.90;;;;;;4876719;28;20092;-81
2021/03/31 03:40:19;;;;;;;32.80;14.52;;;2.00;99.90;;;;;;4887672;28;20090;-80
2021/03/31 03:42:42;;;;;;;34.22;6.85;;;1.80;99.90;;;;;;4884102;28;20091;-82
2021/03/31 03:45:06;;;;;;;39.15;6.32;;;1.60;99.90;;;;;;4877737;28;20534;-82
2021/03/31 03:47:30;;;;;;;24.90;8.65;;;1.50;99.90;;;;;;4886948;28;20534;-80
2021/03/31 03:49:53;;;;;;;38.10;15.88;;;1.50;99.90;;;;;;4879990;28;20545;-81
2021/03/31 03:52:17;;;;;;;39.45;15.77;;;1.60;99.90;;;;;;4886892;28;20087;-82
2021/03/31 03:54:39;;;;;;;45.22;19.40;;;1.60;99.90;;;;;;4887544;28;20121;-81
2021/03/31 03:57:02;;;;;;;53.80;26.73;;;1.60;99.90;;;;;;4888682;28;20091;-81
2021/03/31 03:59:29;;;;;;;125.13;41.20;;;1.70;99.90;;;;;;4889424;28;20088;-81
2021/03/31 04:01:52;;;;;;;90.57;38.95;;;1.90;99.90;;;;;;4875199;28;20084;-83
2021/03/31 04:04:16;;;;;;;93.50;43.75;;;1.90;99.90;;;;;;4886195;28;20465;-82
2021/03/31 04:06:39;;;;;;;100.53;48.83;;;1.90;99.90;;;;;;4887572;28;20087;-84
2021/03/31 04:09:03;;;;;;;96.00;50.67;;;2.00;99.90;;;;;;4887677;28;20431;-82
2021/03/31 04:11:26;;;;;;;111.55;54.42;;;2.10;99.90;;;;;;4884354;28;20121;-82
2021/03/31 04:13:49;;;;;;;101.65;52.25;;;2.20;99.90;;;;;;4873393;28;20566;-81
2021/03/31 04:16:13;;;;;;;102.25;51.88;;;2.30;99.90;;;;;;4876855;28;20447;-81
2021/03/31 04:18:38;;;;;;;98.15;50.17;;;2.30;99.90;;;;;;4870504;28;20094;-81
2021/03/31 04:21:01;;;;;;;88.13;49.40;;;2.30;99.90;;;;;;4885753;28;20087;-81
2021/03/31 04:23:32;;;;;;;89.10;48.25;;;2.30;99.90;;;;;;4886441;28;20098;-82
2021/03/31 04:25:57;;;;;;;81.63;43.08;;;2.20;99.90;;;;;;4887280;28;20098;-83
2021/03/31 04:28:23;;;;;;;78.75;45.30;;;2.10;99.90;;;;;;4869039;28;20091;-82
2021/03/31 04:30:45;;;;;;;76.78;41.05;;;2.00;99.90;;;;;;4865897;28;20091;-82
2021/03/31 04:33:10;;;;;;;60.22;33.38;;;2.00;99.90;;;;;;4883531;28;20418;-83
2021/03/31 04:35:34;;;;;;;73.32;38.22;;;2.00;99.90;;;;;;4886528;28;20071;-83
2021/03/31 04:38:08;;;;;;;58.65;32.15;;;2.00;99.90;;;;;;4885736;28;20149;-82
2021/03/31 04:40:38;;;;;;;56.88;33.40;;;1.90;99.90;;;;;;4884783;28;20084;-82
2021/03/31 04:43:01;;;;;;;62.78;33.67;;;1.90;99.90;;;;;;4882825;28;20512;-81
2021/03/31 04:45:23;;;;;;;59.22;31.67;;;1.80;99.90;;;;;;4886421;28;20083;-79
2021/03/31 04:47:46;;;;;;;59.30;31.38;;;1.90;99.90;;;;;;4882971;28;20133;-80
2021/03/31 04:50:10;;;;;;;60.55;30.60;;;2.20;99.90;;;;;;4875024;28;20095;-82
2021/03/31 04:52:33;;;;;;;57.33;32.85;;;2.40;99.90;;;;;;4860171;28;20130;-81
2021/03/31 04:54:55;;;;;;;59.72;34.28;;;2.20;99.90;;;;;;4876509;28;21011;-82
2021/03/31 04:57:19;;;;;;;62.30;31.73;;;1.90;99.90;;;;;;4882593;28;20083;-82
2021/03/31 04:59:41;;;;;;;53.55;31.13;;;1.90;99.90;;;;;;4875277;28;21384;-82
2021/03/31 05:02:04;;;;;;;47.95;28.55;;;1.90;99.90;;;;;;4884931;28;20117;-79
2021/03/31 05:04:27;;;;;;;53.28;29.73;;;1.90;99.90;;;;;;4876072;28;22850;-82
2021/03/31 05:06:49;;;;;;;50.30;28.27;;;1.80;99.90;;;;;;4884405;28;20149;-82
2021/03/31 05:09:12;;;;;;;49.05;28.15;;;1.80;99.90;;;;;;4886276;28;20125;-83
2021/03/31 05:11:34;;;;;;;46.03;26.35;;;1.90;99.90;;;;;;4883675;28;20111;-81
2021/03/31 05:13:58;;;;;;;44.72;27.15;;;1.90;99.90;;;;;;4883074;28;20096;-82
2021/03/31 05:16:20;;;;;;;49.45;26.52;;;2.00;99.90;;;;;;4873195;28;20098;-80
2021/03/31 05:18:43;;;;;;;56.40;26.02;;;2.20;99.90;;;;;;4879857;28;20102;-81
2021/03/31 05:21:05;;;;;;;61.45;26.10;;;2.50;99.90;;;;;;4871644;28;20102;-81
2021/03/31 05:23:28;;;;;;;51.88;28.10;;;2.80;99.90;;;;;;4875704;28;20080;-79
2021/03/31 05:25:50;;;;;;;53.05;28.98;;;3.10;99.90;;;;;;4883043;28;20153;-82
2021/03/31 05:28:14;;;;;;;55.55;31.65;;;3.40;99.90;;;;;;4885240;28;20903;-82
2021/03/31 05:30:37;;;;;;;47.05;28.27;;;3.60;99.90;;;;;;4885236;28;20091;-82
2021/03/31 05:33:00;;;;;;;46.70;29.50;;;3.90;99.90;;;;;;4884507;28;20099;-82
2021/03/31 05:35:23;;;;;;;43.38;27.98;;;4.00;99.90;;;;;;4886831;28;20099;-82
2021/03/31 05:37:47;;;;;;;48.45;27.63;;;4.00;99.90;;;;;;4875410;28;20096;-79
2021/03/31 05:40:11;;;;;;;46.65;27.23;;;4.00;99.90;;;;;;4869248;28;20091;-83
2021/03/31 05:42:35;;;;;;;42.47;25.50;;;4.10;99.90;;;;;;4885836;28;20091;-82
2021/03/31 05:45:00;;;;;;;51.38;25.15;;;4.20;99.90;;;;;;4877348;28;20181;-82
2021/03/31 05:47:32;;;;;;;40.67;24.25;;;4.20;99.90;;;;;;4873102;28;20092;-81
2021/03/31 05:49:55;;;;;;;33.70;22.67;;;4.40;99.90;;;;;;4884055;28;20134;-81
2021/03/31 05:52:18;;;;;;;23.55;17.05;;;4.40;99.90;;;;;;4886744;28;20083;-84
2021/03/31 05:54:40;;;;;;;17.95;12.32;;;4.40;99.90;;;;;;4885734;28;20125;-82
2021/03/31 05:57:04;;;;;;;19.08;12.68;;;4.70;99.90;;;;;;4887063;28;20106;-81
2021/03/31 05:59:28;;;;;;;22.02;13.95;;;4.80;99.90;;;;;;4886025;28;20087;-82
2021/03/31 06:01:51;;;;;;;25.73;15.10;;;5.00;99.90;;;;;;4882447;28;20091;-80
2021/03/31 06:04:18;;;;;;;25.15;16.42;;;5.20;99.90;;;;;;4871853;28;20092;-82
2021/03/31 06:06:40;;;;;;;30.23;17.52;;;5.50;99.90;;;;;;4889542;28;20087;-83
2021/03/31 06:09:06;;;;;;;27.75;15.15;;;6.10;99.90;;;;;;4888348;28;20123;-81
2021/03/31 06:11:47;;;;;;;27.42;14.50;;;6.60;99.90;;;;;;4887128;28;20090;-82
2021/03/31 06:14:10;;;;;;;31.80;15.65;;;7.00;99.90;;;;;;4867218;28;20492;-81
2021/03/31 06:16:36;;;;;;;32.15;15.30;;;7.20;99.90;;;;;;4886642;28;20112;-80
2021/03/31 06:19:16;;;;;;;29.55;14.50;;;7.40;99.90;;;;;;4889943;28;20483;-83
2021/03/31 06:21:41;;;;;;;34.63;15.05;;;7.70;99.90;;;;;;4877869;28;20427;-83
2021/03/31 06:24:20;;;;;;;25.48;14.35;;;8.10;99.90;;;;;;4886132;28;20111;-80
2021/03/31 06:26:43;;;;;;;22.13;12.85;;;8.80;99.90;;;;;;4878072;28;20483;-82
2021/03/31 06:29:07;;;;;;;18.42;11.77;;;9.60;99.90;;;;;;4886463;28;20118;-84
2021/03/31 06:31:33;;;;;;;12.73;7.65;;;10.30;99.90;;;;;;4887541;28;20096;-83
2021/03/31 06:33:56;;;;;;;;;;;10.30;99.90;;;;;;4875128;28;20077;-83
2021/03/31 06:36:34;;;;;;;13.93;7.05;;;10.70;99.90;;;;;;4872003;28;19965;-82
2021/03/31 06:38:56;;;;;;;12.45;7.03;;;10.70;99.90;;;;;;4887072;28;20081;-84
2021/03/31 06:41:28;;;;;;;12.25;7.55;;;11.00;99.90;;;;;;4888473;28;20130;-81
2021/03/31 06:44:07;;;;;;;16.23;7.70;;;11.50;99.90;;;;;;4886796;28;20084;-85
2021/03/31 06:46:42;;;;;;;17.85;7.80;;;12.10;99.90;;;;;;4863741;28;20492;-83
2021/03/31 06:49:06;;;;;;;16.10;7.68;;;12.50;99.90;;;;;;4888015;28;20125;-85
2021/03/31 06:51:31;;;;;;;16.05;8.30;;;13.20;99.90;;;;;;4881649;28;20110;-80
2021/03/31 06:53:55;;;;;;;13.25;7.78;;;14.70;99.90;;;;;;4888408;28;20106;-85
2021/03/31 06:56:27;;;;;;;14.95;6.82;;;16.20;99.90;;;;;;4887633;28;20415;-80
2021/03/31 06:58:57;;;;;;;9.15;5.63;;;17.70;99.90;;;;;;4887586;28;20037;-84
2021/03/31 07:01:25;;;;;;;11.13;5.82;;;18.00;99.90;;;;;;4888165;28;20037;-82
2021/03/31 07:03:48;;;;;;;13.25;5.63;;;19.20;99.90;;;;;;4888291;28;20499;-84
2021/03/31 07:06:13;;;;;;;14.10;5.55;;;19.70;99.90;;;;;;4886075;28;20496;-82
2021/03/31 07:08:37;;;;;;;10.85;5.45;;;19.70;99.90;;;;;;4883304;28;20049;-84
2021/03/31 07:10:59;;;;;;;14.05;5.65;;;20.20;99.90;;;;;;4888106;28;20071;-83
2021/03/31 07:13:30;;;;;;;13.65;5.43;;;20.30;99.90;;;;;;4889390;28;20040;-83
2021/03/31 07:15:53;;;;;;;13.57;6.13;;;20.30;99.90;;;;;;4886836;28;20404;-82
2021/03/31 07:18:22;;;;;;;12.40;5.82;;;20.80;99.90;;;;;;4891500;28;20056;-83
2021/03/31 07:20:46;;;;;;;14.50;6.22;;;21.30;99.90;;;;;;4875730;28;20045;-84
2021/03/31 07:23:08;;;;;;;12.32;5.65;;;21.60;99.90;;;;;;4855454;28;20056;-83
2021/03/31 07:25:32;;;;;;;11.93;5.60;;;21.80;99.90;;;;;;4882539;28;20053;-81
2021/03/31 07:27:57;;;;;;;12.40;6.22;;;22.10;99.40;;;;;;4887367;28;20044;-84
2021/03/31 07:30:23;;;;;;;9.98;5.72;;;22.00;99.90;;;;;;4887019;28;20392;-82
2021/03/31 07:32:51;;;;;;;10.07;5.72;;;21.70;98.70;;;;;;4872369;28;20045;-81
2021/03/31 07:35:15;;;;;;;9.88;6.15;;;21.30;99.70;;;;;;4884819;28;20087;-83
2021/03/31 07:37:38;;;;;;;19.25;6.32;;;21.60;99.90;;;;;;4887722;28;20045;-83
2021/03/31 07:40:04;;;;;;;9.52;5.57;;;22.40;98.40;;;;;;4877663;28;20083;-84
2021/03/31 07:42:28;;;;;;;10.35;5.50;;;23.20;97.20;;;;;;4886759;28;20091;-82
2021/03/31 07:44:51;;;;;;;9.93;5.63;;;23.40;95.90;;;;;;4884618;28;20045;-87
2021/03/31 07:47:14;;;;;;;15.98;5.97;;;23.00;95.20;;;;;;4862626;28;20048;-85
2021/03/31 07:49:37;;;;;;;10.15;5.88;;;22.70;97.40;;;;;;4882990;28;20049;-84
2021/03/31 07:52:03;;;;;;;17.08;7.20;;;22.30;96.10;;;;;;4888904;28;20623;-85
2021/03/31 07:54:26;;;;;;;15.70;6.00;;;21.50;97.50;;;;;;4872093;28;20053;-83
2021/03/31 07:56:49;;;;;;;10.73;5.40;;;22.00;97.20;;;;;;4876959;28;20045;-83
2021/03/31 07:59:15;;;;;;;10.35;5.78;;;21.70;97.10;;;;;;4878250;28;20115;-81
2021/03/31 08:01:41;;;;;;;10.48;6.43;;;21.70;98.10;;;;;;4887896;28;20049;-81
2021/03/31 08:04:08;;;;;;;10.20;5.60;;;22.30;97.00;;;;;;4879778;28;20404;-82
2021/03/31 08:06:32;;;;;;;13.27;6.90;;;22.70;96.20;;;;;;4889566;28;20044;-81
2021/03/31 08:09:03;;;;;;;12.02;6.80;;;22.50;97.20;;;;;;4888741;28;20053;-81
2021/03/31 08:11:55;;;;;;;15.25;7.05;;;22.70;96.70;;;;;;4888854;28;20049;-81
2021/03/31 08:14:43;;;;;;;13.55;7.10;;;23.20;95.50;;;;;;4882345;28;20045;-83
2021/03/31 08:17:08;;;;;;;13.05;6.22;;;23.40;95.70;;;;;;4878774;28;20502;-82
2021/03/31 08:19:36;;;;;;;17.13;6.40;;;23.60;95.00;;;;;;4888222;28;20498;-82
2021/03/31 08:22:32;;;;;;;11.85;6.28;;;23.80;94.20;;;;;;4880883;28;20048;-82
2021/03/31 08:25:23;;;;;;;13.10;7.05;;;23.70;94.50;;;;;;4874805;28;20056;-82
2021/03/31 08:28:05;;;;;;;14.77;7.28;;;24.00;94.70;;;;;;4882955;28;20041;-83
2021/03/31 08:30:30;;;;;;;16.75;7.30;;;24.20;93.30;;;;;;4876865;28;20047;-85
2021/03/31 08:32:55;;;;;;;14.85;7.40;;;23.90;93.30;;;;;;4880826;28;20049;-81
2021/03/31 08:35:20;;;;;;;15.13;7.22;;;24.10;94.10;;;;;;4890192;28;20071;-83
2021/03/31 08:37:45;;;;;;;15.00;8.07;;;24.40;93.50;;;;;;4882502;28;20045;-81
2021/03/31 08:40:18;;;;;;;16.48;8.50;;;24.40;92.10;;;;;;4888329;28;20423;-80
2021/03/31 08:42:48;;;;;;;19.63;8.98;;;24.30;91.90;;;;;;4887283;28;20955;-83
2021/03/31 08:45:27;;;;;;;19.45;8.25;;;23.80;92.70;;;;;;4889433;28;20115;-86
2021/03/31 08:47:52;;;;;;;18.17;8.95;;;23.60;92.30;;;;;;4883970;28;20056;-83
2021/03/31 08:50:33;;;;;;;18.00;8.02;;;23.80;93.70;;;;;;4870612;28;20048;-82
2021/03/31 08:53:06;;;;;;;18.48;9.25;;;24.00;91.60;;;;;;4884076;28;20049;-83
2021/03/31 08:55:38;;;;;;;18.75;8.65;;;24.00;92.30;;;;;;4873431;28;20049;-83
2021/03/31 08:58:05;;;;;;;16.30;8.98;;;24.00;92.40;;;;;;4885376;28;20049;-86
2021/03/31 09:00:51;;;;;;;18.52;9.15;;;23.90;92.20;;;;;;4884881;28;20122;-82
2021/03/31 09:03:19;;;;;;;21.42;10.20;;;23.80;91.70;;;;;;4839738;28;20488;-81
2021/03/31 09:06:04;;;;;;;25.35;10.68;;;23.70;91.60;;;;;;4834857;28;20064;-83
2021/03/31 09:08:43;;;;;;;22.70;11.75;;;24.00;91.80;;;;;;4844560;28;20053;-83
2021/03/31 09:17:34;;;;;;;21.17;11.10;;;22.80;91.80;;;;;;4825511;28;20041;-83
2021/03/31 09:20:01;;;;;;;23.30;11.98;;;22.70;93.30;;;;;;4806923;28;20048;-82
2021/03/31 09:25:41;;;;;;;23.90;12.07;;;22.00;92.90;;;;;;4828601;28;20130;-83
2021/03/31 09:28:29;;;;;;;24.77;11.63;;;22.00;94.00;;;;;;4834391;28;20441;-83
2021/03/31 09:31:01;;;;;;;21.05;11.57;;;22.00;94.70;;;;;;4812025;28;20051;-83
2021/03/31 09:34:13;;;;;;;27.00;12.52;;;21.40;94.30;;;;;;4828506;28;20106;-83
2021/03/31 09:39:58;;;;;;;24.20;11.82;;;21.40;95.20;;;;;;4829269;28;20507;-82
2021/03/31 09:43:13;;;;;;;26.45;11.82;;;21.20;95.30;;;;;;4826519;28;20501;-83
2021/03/31 09:46:10;;;;;;;19.63;11.45;;;21.10;95.90;;;;;;4832757;28;20560;-82
2021/03/31 09:49:21;;;;;;;21.45;10.70;;;20.90;95.00;;;;;;4822931;28;20050;-83
2021/03/31 09:52:17;;;;;;;19.75;10.93;;;20.60;96.40;;;;;;4821364;28;20052;-82
2021/03/31 10:05:11;;;;;;;25.45;12.68;;;21.40;95.80;;;;;;4883604;28;20043;-82
2021/03/31 10:08:05;;;;;;;30.65;14.50;;;21.40;95.90;;;;;;4876403;28;20098;-82
2021/03/31 10:14:15;;;;;;;24.75;12.45;;;21.70;93.80;;;;;;4893763;28;20040;-82
2021/03/31 10:16:42;;;;;;;29.00;13.40;;;21.90;94.80;;;;;;4875617;28;20123;-84
2021/03/31 10:22:31;;;;;;;27.17;12.95;;;21.90;91.70;;;;;;4883176;28;20036;-83
2021/03/31 10:28:40;;;;;;;26.92;13.18;;;21.90;92.10;;;;;;4880306;27;20047;-84
2021/03/31 10:38:21;;;;;;;24.60;12.38;;;21.80;91.00;;;;;;4881655;28;20044;-84
2021/03/31 10:41:47;;;;;;;27.67;12.52;;;21.80;90.70;;;;;;4892091;28;20530;-84
2021/03/31 10:48:24;;;;;;;27.35;14.10;;;21.80;90.70;;;;;;4871668;27;20461;-83
2021/03/31 10:50:52;;;;;;;24.33;12.65;;;22.10;88.00;;;;;;4863513;28;20399;-84
2021/03/31 10:53:31;;;;;;;27.75;12.90;;;22.10;88.00;;;;;;4890956;28;20051;-84
2021/03/31 10:56:17;;;;;;;25.40;13.30;;;22.00;90.00;;;;;;4920539;28;20052;-84
2021/03/31 10:58:45;;;;;;;24.80;13.02;;;21.70;82.50;;;;;;4935742;28;20376;-84
2021/03/31 11:01:08;;;;;;;29.15;13.25;;;21.70;81.80;;;;;;4927918;28;20044;-84
2021/03/31 11:03:34;;;;;;;29.10;13.35;;;21.80;82.90;;;;;;4923996;28;20056;-84
2021/03/31 11:06:01;;;;;;;27.58;12.82;;;21.70;83.30;;;;;;4922677;28;20445;-85
2021/03/31 11:08:26;;;;;;;26.45;12.82;;;21.80;85.40;;;;;;4925010;28;20493;-85
2021/03/31 11:10:49;;;;;;;25.17;12.10;;;21.60;84.80;;;;;;4940214;28;20055;-85
2021/03/31 11:13:12;;;;;;;28.95;14.15;;;21.60;86.60;;;;;;4920329;28;20537;-82
2021/03/31 11:15:42;;;;;;;25.38;12.70;;;21.70;82.90;;;;;;4931667;28;20040;-83
2021/03/31 11:18:26;;;;;;;33.17;13.55;;;21.70;84.10;;;;;;4924189;28;20044;-84
2021/03/31 11:21:07;;;;;;;23.17;12.13;;;21.40;78.10;;;;;;4901543;28;20052;-83
2021/03/31 11:26:21;;;;;;;22.42;11.77;;;21.40;79.60;;;;;;4908947;28;20116;-84
2021/03/31 11:28:51;;;;;;;26.77;12.90;;;21.80;81.80;;;;;;4891082;28;20051;-81
2021/03/31 11:31:15;;;;;;;24.52;11.90;;;21.90;80.30;;;;;;4905736;28;20483;-83
2021/03/31 11:33:54;;;;;;;22.73;11.95;;;21.90;73.30;;;;;;4927147;28;20040;-79
2021/03/31 11:36:17;;;;;;;25.48;10.85;;;21.80;69.90;;;;;;4909613;28;20388;-84
2021/03/31 11:38:41;;;;;;;24.48;12.10;;;21.50;74.30;;;;;;4905535;28;20102;-84
2021/03/31 11:41:10;;;;;;;27.38;13.05;;;21.40;73.40;;;;;;4910108;28;20102;-88
2021/03/31 11:43:33;;;;;;;25.25;11.90;;;21.30;77.80;;;;;;4910199;28;20045;-81
2021/03/31 11:45:56;;;;;;;22.52;11.65;;;;;;;;;;4909017;28;20084;-87
2021/03/31 11:48:19;;;;;;;21.45;11.10;;;21.30;74.00;;;;;;4908662;28;20093;-82
2021/03/31 11:50:43;;;;;;;22.02;11.02;;;21.40;73.70;;;;;;4908699;28;20071;-83
2021/03/31 11:53:09;;;;;;;19.65;10.13;;;21.40;78.00;;;;;;4929212;28;20109;-84
2021/03/31 11:55:33;;;;;;;25.23;12.10;;;21.40;72.10;;;;;;4930633;28;20052;-84
2021/03/31 11:57:57;;;;;;;24.42;11.68;;;21.60;77.00;;;;;;4925415;28;20055;-82
2021/03/31 12:00:21;;;;;;;22.00;10.27;;;21.70;72.00;;;;;;4902440;28;20056;-84
2021/03/31 12:02:55;;;;;;;17.02;9.38;;;21.60;70.00;;;;;;4908252;28;20082;-82
2021/03/31 12:05:19;;;;;;;19.85;10.43;;;21.50;69.20;;;;;;4895893;28;20574;-84
2021/03/31 12:07:44;;;;;;;20.27;10.43;;;21.40;73.40;;;;;;4907022;28;20048;-85
2021/03/31 12:10:09;;;;;;;24.05;11.13;;;21.20;74.50;;;;;;4908256;28;20459;-83
2021/03/31 12:12:32;;;;;;;20.70;10.32;;;21.20;72.40;;;;;;4907684;28;20045;-84
2021/03/31 12:15:08;;;;;;;31.95;9.35;;;21.10;71.00;;;;;;4908810;28;20052;-83
2021/03/31 12:17:32;;;;;;;22.98;9.90;;;21.10;71.20;;;;;;4918551;28;20541;-83
2021/03/31 12:19:56;;;;;;;17.52;9.02;;;21.00;69.70;;;;;;4920732;28;20052;-82
2021/03/31 12:22:18;;;;;;;18.02;8.35;;;;;;;;;;4929330;28;20056;-83
2021/03/31 12:24:41;;;;;;;19.73;9.43;;;21.10;74.40;;;;;;4931963;28;20092;-84
2021/03/31 12:27:10;;;;;;;18.33;9.20;;;21.10;75.20;;;;;;4932422;28;20467;-82
2021/03/31 12:29:35;;;;;;;20.77;9.68;;;21.20;78.70;;;;;;4920453;28;20064;-83
2021/03/31 12:31:59;;;;;;;18.63;9.38;;;21.30;78.00;;;;;;4933466;28;20530;-83
2021/03/31 12:34:22;;;;;;;20.63;10.10;;;21.50;81.80;;;;;;4934970;28;20205;-83
2021/03/31 12:36:45;;;;;;;20.10;9.85;;;21.50;77.00;;;;;;4924978;28;20051;-83
2021/03/31 12:39:09;;;;;;;25.67;10.98;;;21.50;72.20;;;;;;4932694;28;20051;-82
2021/03/31 12:41:32;;;;;;;17.58;8.82;;;21.40;73.50;;;;;;4933660;28;20055;-86
2021/03/31 12:44:00;;;;;;;19.02;8.77;;;21.40;72.60;;;;;;4936226;28;20081;-83
2021/03/31 12:46:26;;;;;;;20.88;8.63;;;21.20;69.20;;;;;;4935592;28;20502;-82
2021/03/31 12:48:50;;;;;;;24.75;9.18;;;21.20;76.70;;;;;;4934072;28;20498;-84
2021/03/31 12:51:28;;;;;;;19.75;9.38;;;21.20;74.80;;;;;;4929590;28;20059;-83
2021/03/31 12:53:56;;;;;;;23.50;9.38;;;21.30;74.30;;;;;;4927352;28;20044;-84
2021/03/31 12:56:21;;;;;;;23.73;10.02;;;21.30;74.70;;;;;;4929499;28;20504;-84
2021/03/31 12:58:44;;;;;;;19.73;8.90;;;21.40;73.70;;;;;;4928626;28;20051;-84
2021/03/31 13:01:13;;;;;;;20.08;8.38;;;21.40;78.40;;;;;;4929632;28;20059;-85
2021/03/31 13:03:37;;;;;;;21.67;9.88;;;21.40;77.90;;;;;;4932083;28;20132;-84
2021/03/31 13:06:01;;;;;;;17.98;9.00;;;21.40;75.50;;;;;;4930508;28;20570;-82
2021/03/31 13:08:23;;;;;;;19.98;9.20;;;21.40;76.00;;;;;;4928643;28;20125;-86
2021/03/31 13:10:52;;;;;;;20.55;9.30;;;21.40;79.00;;;;;;4934052;28;24831;-84
2021/03/31 13:13:19;;;;;;;19.30;9.10;;;21.50;73.90;;;;;;4917682;28;20048;-83
2021/03/31 13:15:44;;;;;;;20.25;9.57;;;21.40;70.60;;;;;;4925302;28;20123;-83
2021/03/31 13:21:59;;;;;;;19.77;8.63;;;21.40;75.30;;;;;;4930712;28;20058;-85
2021/03/31 13:26:42;;;;;;;16.42;8.25;;;21.60;73.80;;;;;;4929173;28;20060;-85
2021/03/31 13:31:54;;;;;;;23.83;10.90;;;21.50;74.30;;;;;;4844786;28;20088;-82
2021/03/31 13:34:24;;;;;;;35.80;9.27;;;21.60;73.90;;;;;;4906604;28;20052;-83
2021/03/31 13:36:52;;;;;;;19.08;9.23;;;21.60;71.20;;;;;;4924632;28;20078;-84